createdAt,value
2018-02-17T00:02:00.062Z,2.35
2018-02-17T00:04:26.755Z,2.31
2018-02-17T00:06:53.681Z,2.51
2018-02-17T00:09:20.299Z,2.43
2018-02-17T00:11:46.915Z,2.28
2018-02-17T00:14:13.655Z,2.34
2018-02-17T00:16:40.253Z,2.54
2018-02-17T00:19:06.848Z,2.55
2018-02-17T00:21:33.451Z,2.31
2018-02-17T00:24:00.040Z,2.22
2018-02-17T00:26:26.779Z,2.13
2018-02-17T00:28:53.371Z,2.33
2018-02-17T00:31:20.765Z,2.39
2018-02-17T00:33:47.397Z,2.38
2018-02-17T00:36:14.140Z,2.27
2018-02-17T00:38:40.734Z,2.30
2018-02-17T00:41:07.327Z,2.10
2018-02-17T00:43:33.986Z,2.32
2018-02-17T00:46:00.672Z,2.43
2018-02-17T00:48:27.328Z,2.36
2018-02-17T00:50:53.994Z,2.30
2018-02-17T00:53:20.627Z,2.35
2018-02-17T00:55:47.262Z,2.33
2018-02-17T00:58:13.900Z,2.35
2018-02-17T01:00:40.491Z,2.34
2018-02-17T01:03:07.859Z,2.33
2018-02-17T01:05:35.199Z,2.29
2018-02-17T01:08:01.857Z,2.32
2018-02-17T01:10:28.522Z,2.26
2018-02-17T01:12:55.159Z,2.29
2018-02-17T01:15:21.750Z,2.40
2018-02-17T01:17:48.369Z,2.48
2018-02-17T01:20:14.959Z,2.51
2018-02-17T01:22:41.624Z,2.37
2018-02-17T01:25:08.247Z,2.25
2018-02-17T01:27:34.875Z,2.23
2018-02-17T01:30:01.450Z,2.40
2018-02-17T01:32:28.114Z,2.36
2018-02-17T01:34:54.736Z,2.22
2018-02-17T01:37:22.136Z,2.16
2018-02-17T01:39:48.772Z,2.06
2018-02-17T01:42:16.152Z,2.15
2018-02-17T01:44:42.764Z,2.06
2018-02-17T01:47:09.435Z,2.08
2018-02-17T01:49:36.044Z,2.06
2018-02-17T01:52:02.716Z,2.06
2018-02-17T01:54:29.354Z,2.06
2018-02-17T01:56:56.055Z,2.16
2018-02-17T01:59:23.379Z,2.34
2018-02-17T02:01:49.966Z,2.32
2018-02-17T02:04:16.570Z,2.28
2018-02-17T02:06:43.189Z,2.33
2018-02-17T02:09:09.795Z,2.35
2018-02-17T02:11:36.443Z,2.66
2018-02-17T02:14:03.078Z,2.42
2018-02-17T02:16:29.731Z,2.27
2018-02-17T02:18:56.342Z,2.20
2018-02-17T02:21:22.945Z,2.15
2018-02-17T02:23:49.539Z,2.11
2018-02-17T02:26:16.136Z,2.09
2018-02-17T02:28:42.780Z,2.06
2018-02-17T02:31:09.371Z,2.21
2018-02-17T02:33:36.301Z,2.17
2018-02-17T02:36:02.907Z,2.15
2018-02-17T02:38:29.535Z,2.17
2018-02-17T02:40:56.208Z,2.18
2018-02-17T02:43:22.831Z,2.54
2018-02-17T02:45:49.461Z,2.31
2018-02-17T02:48:16.067Z,2.30
2018-02-17T02:50:42.683Z,2.37
2018-02-17T02:53:09.330Z,2.53
2018-02-17T02:55:36.695Z,2.68
2018-02-17T02:58:04.080Z,2.54
2018-02-17T03:00:30.699Z,2.48
2018-02-17T03:02:57.305Z,2.63
2018-02-17T03:05:23.891Z,2.53
2018-02-17T03:07:50.494Z,2.55
2018-02-17T03:10:17.110Z,2.70
2018-02-17T03:12:43.720Z,2.44
2018-02-17T03:15:10.347Z,2.49
2018-02-17T03:17:36.992Z,2.52
2018-02-17T03:20:03.591Z,2.36
2018-02-17T03:22:30.932Z,2.34
2018-02-17T03:24:57.557Z,2.28
2018-02-17T03:27:24.199Z,2.29
2018-02-17T03:29:50.790Z,2.19
2018-02-17T03:32:17.385Z,2.08
2018-02-17T03:34:44.730Z,2.07
2018-02-17T03:37:12.120Z,2.18
2018-02-17T03:39:39.540Z,2.06
2018-02-17T03:42:06.149Z,2.03
2018-02-17T03:44:32.735Z,2.03
2018-02-17T03:47:00.060Z,2.27
2018-02-17T03:49:26.669Z,2.39
2018-02-17T03:51:53.234Z,2.19
2018-02-17T03:54:19.928Z,2.34
2018-02-17T03:56:46.506Z,2.07
2018-02-17T03:59:13.066Z,2.08
2018-02-17T04:01:40.422Z,2.22
2018-02-17T04:04:07.739Z,2.12
2018-02-17T04:06:34.366Z,2.08
2018-02-17T04:09:00.918Z,2.34
2018-02-17T04:11:27.557Z,2.30
2018-02-17T04:13:54.170Z,2.47
2018-02-17T04:16:20.758Z,2.34
2018-02-17T04:18:48.084Z,2.34
2018-02-17T04:21:14.719Z,2.24
2018-02-17T04:23:42.088Z,2.32
2018-02-17T04:26:08.691Z,2.28
2018-02-17T04:28:35.306Z,2.40
2018-02-17T04:31:01.872Z,2.55
2018-02-17T04:33:28.560Z,2.58
2018-02-17T04:35:55.193Z,2.51
2018-02-17T04:38:21.863Z,2.42
2018-02-17T04:40:52.353Z,2.54
2018-02-17T04:43:24.614Z,2.52
2018-02-17T04:45:59.060Z,2.57
2018-02-17T05:01:57.573Z,2.32
2018-02-17T05:17:51.106Z,2.14
2018-02-17T05:33:46.148Z,2.10
2018-02-17T05:36:13.613Z,2.19
2018-02-17T05:38:42.077Z,2.09
2018-02-17T05:41:22.646Z,2.11
2018-02-17T05:43:49.310Z,2.15
2018-02-17T05:46:15.917Z,2.08
2018-02-17T05:48:46.466Z,1.99
2018-02-17T05:51:13.090Z,2.04
2018-02-17T05:53:40.431Z,2.08
2018-02-17T05:56:07.050Z,1.99
2018-02-17T05:58:33.665Z,2.05
2018-02-17T06:01:00.351Z,1.87
2018-02-17T06:03:27.026Z,1.85
2018-02-17T06:05:53.711Z,1.87
2018-02-17T06:08:20.379Z,1.82
2018-02-17T06:10:46.963Z,1.82
2018-02-17T06:13:13.559Z,1.77
2018-02-17T06:15:40.179Z,1.73
2018-02-17T06:18:06.871Z,1.78
2018-02-17T06:20:33.473Z,1.76
2018-02-17T06:23:00.074Z,1.83
2018-02-17T06:25:27.443Z,1.84
2018-02-17T06:27:54.763Z,1.82
2018-02-17T06:30:21.375Z,1.79
2018-02-17T06:32:47.964Z,1.82
2018-02-17T06:35:15.306Z,1.82
2018-02-17T06:37:41.891Z,1.82
2018-02-17T06:40:08.506Z,1.90
2018-02-17T06:42:35.171Z,1.87
2018-02-17T06:45:01.885Z,1.84
2018-02-17T06:47:28.615Z,1.86
2018-02-17T06:49:55.982Z,1.93
2018-02-17T06:52:23.325Z,1.93
2018-02-17T06:54:49.970Z,1.93
2018-02-17T06:57:16.578Z,2.01
2018-02-17T06:59:43.235Z,2.01
2018-02-17T07:02:10.759Z,1.97
2018-02-17T07:04:37.315Z,1.90
2018-02-17T07:07:04.668Z,2.00
2018-02-17T07:09:32.057Z,1.82
2018-02-17T07:11:58.706Z,1.83
2018-02-17T07:14:25.276Z,1.78
2018-02-17T07:16:51.915Z,1.90
2018-02-17T07:19:18.519Z,1.83
2018-02-17T07:21:45.138Z,1.80
2018-02-17T07:24:11.775Z,1.78
2018-02-17T07:26:38.391Z,1.74
2018-02-17T07:29:05.782Z,1.82
2018-02-17T07:31:32.885Z,1.77
2018-02-17T07:33:59.498Z,1.96
2018-02-17T07:36:26.136Z,1.79
2018-02-17T07:38:52.762Z,1.90
2018-02-17T07:41:19.385Z,1.83
2018-02-17T07:43:46.076Z,1.99
2018-02-17T07:46:13.491Z,1.85
2018-02-17T07:48:40.107Z,1.73
2018-02-17T07:51:06.729Z,1.65
2018-02-17T07:53:33.310Z,1.62
2018-02-17T07:56:00.019Z,1.65
2018-02-17T07:58:26.669Z,1.65
2018-02-17T08:00:53.256Z,1.55
2018-02-17T08:03:20.615Z,1.58
2018-02-17T08:05:47.212Z,1.43
2018-02-17T08:08:13.909Z,1.42
2018-02-17T08:10:40.569Z,1.39
2018-02-17T08:13:07.179Z,1.26
2018-02-17T08:15:33.820Z,1.32
2018-02-17T08:18:00.462Z,1.33
2018-02-17T08:20:27.125Z,1.32
2018-02-17T08:22:53.714Z,1.48
2018-02-17T08:25:21.036Z,1.52
2018-02-17T08:27:47.684Z,1.56
2018-02-17T08:30:15.054Z,1.47
2018-02-17T08:32:42.438Z,1.33
2018-02-17T08:35:09.034Z,1.42
2018-02-17T08:37:35.730Z,1.43
2018-02-17T08:40:02.372Z,1.62
2018-02-17T08:42:29.048Z,1.57
2018-02-17T08:44:55.684Z,1.60
2018-02-17T08:47:22.306Z,1.66
2018-02-17T08:49:48.959Z,1.72
2018-02-17T08:52:15.569Z,1.72
2018-02-17T08:54:42.194Z,1.85
2018-02-17T08:57:08.805Z,1.81
2018-02-17T08:59:35.470Z,1.84
2018-02-17T09:02:02.135Z,1.88
2018-02-17T09:04:28.760Z,1.85
2018-02-17T09:06:56.077Z,1.97
2018-02-17T09:09:22.699Z,2.17
2018-02-17T09:11:50.088Z,2.01
2018-02-17T09:14:16.676Z,1.98
2018-02-17T09:16:44.054Z,1.99
2018-02-17T09:19:10.769Z,1.98
2018-02-17T09:21:37.366Z,2.22
2018-02-17T09:24:03.992Z,2.30
2018-02-17T09:26:30.587Z,2.28
2018-02-17T09:28:57.993Z,2.33
2018-02-17T09:31:24.565Z,2.51
2018-02-17T09:33:51.166Z,2.38
2018-02-17T09:36:17.843Z,2.55
2018-02-17T09:38:45.204Z,2.56
2018-02-17T09:41:11.814Z,2.63
2018-02-17T09:43:38.474Z,2.54
2018-02-17T09:46:05.074Z,2.55
2018-02-17T09:48:31.664Z,2.45
2018-02-17T09:50:59.046Z,2.43
2018-02-17T09:53:25.810Z,2.32
2018-02-17T09:55:52.387Z,2.33
2018-02-17T09:58:19.742Z,2.42
2018-02-17T10:00:46.378Z,2.54
2018-02-17T10:03:12.980Z,2.55
2018-02-17T10:05:39.566Z,2.43
2018-02-17T10:08:06.923Z,2.44
2018-02-17T10:10:33.516Z,2.35
2018-02-17T10:13:00.123Z,2.55
2018-02-17T10:15:26.706Z,2.45
2018-02-17T10:17:53.310Z,2.29
2018-02-17T10:20:19.919Z,2.16
2018-02-17T10:22:46.569Z,2.11
2018-02-17T10:25:13.207Z,2.08
2018-02-17T10:27:39.781Z,2.10
2018-02-17T10:30:06.407Z,2.06
2018-02-17T10:32:33.148Z,2.13
2018-02-17T10:34:59.773Z,2.05
2018-02-17T10:37:26.407Z,2.04
2018-02-17T10:39:53.004Z,2.13
2018-02-17T10:42:20.375Z,2.20
2018-02-17T10:44:46.966Z,2.26
2018-02-17T10:47:14.290Z,2.42
2018-02-17T10:49:40.962Z,2.43
2018-02-17T10:52:07.608Z,2.50
2018-02-17T10:54:34.316Z,2.59
2018-02-17T10:57:00.883Z,2.74
2018-02-17T10:59:27.559Z,2.68
2018-02-17T11:01:54.186Z,2.78
2018-02-17T11:04:20.798Z,2.84
2018-02-17T11:06:47.415Z,2.69
2018-02-17T11:09:13.978Z,2.69
2018-02-17T11:11:41.347Z,2.78
2018-02-17T11:14:07.915Z,2.72
2018-02-17T11:16:36.447Z,2.70
2018-02-17T11:19:03.043Z,2.64
2018-02-17T11:21:29.695Z,2.74
2018-02-17T11:23:56.259Z,2.67
2018-02-17T11:26:23.606Z,2.66
2018-02-17T11:28:50.174Z,2.64
2018-02-17T11:31:16.772Z,2.54
2018-02-17T11:33:43.407Z,2.38
2018-02-17T11:36:09.967Z,2.38
2018-02-17T11:38:37.311Z,2.32
2018-02-17T11:41:04.649Z,2.32
2018-02-17T11:43:32.004Z,2.37
2018-02-17T11:45:58.579Z,2.18
2018-02-17T11:48:25.225Z,2.22
2018-02-17T11:50:52.574Z,1.88
2018-02-17T11:53:19.215Z,2.09
2018-02-17T11:55:45.900Z,2.03
2018-02-17T11:58:12.623Z,1.97
2018-02-17T12:00:39.306Z,2.03
2018-02-17T12:03:06.655Z,1.98
2018-02-17T12:05:33.982Z,1.94
2018-02-17T12:08:00.574Z,1.89
2018-02-17T12:10:27.165Z,1.81
2018-02-17T12:12:53.766Z,1.94
2018-02-17T12:15:20.384Z,1.83
2018-02-17T12:17:46.991Z,1.86
2018-02-17T12:20:13.572Z,1.80
2018-02-17T12:22:40.177Z,1.83
2018-02-17T12:25:06.818Z,1.78
2018-02-17T12:27:34.143Z,1.96
2018-02-17T12:30:00.754Z,1.98
2018-02-17T12:35:35.256Z,1.95
2018-02-17T12:38:02.599Z,1.94
2018-02-17T12:40:29.894Z,1.93
2018-02-17T12:42:56.456Z,1.93
2018-02-17T12:45:23.041Z,1.89
2018-02-17T12:47:49.638Z,1.79
2018-02-17T12:50:16.222Z,1.93
2018-02-17T12:52:43.283Z,1.88
2018-02-17T12:55:09.985Z,1.72
2018-02-17T12:57:36.565Z,1.67
2018-02-17T13:00:03.228Z,1.76
2018-02-17T13:02:30.560Z,1.81
2018-02-17T13:04:57.141Z,1.93
2018-02-17T13:07:23.762Z,2.00
2018-02-17T13:09:50.359Z,1.86
2018-02-17T13:12:16.975Z,1.84
2018-02-17T13:14:44.289Z,1.92
2018-02-17T13:17:10.856Z,1.79
2018-02-17T13:19:38.227Z,1.74
2018-02-17T13:22:04.802Z,1.67
2018-02-17T13:24:31.403Z,1.64
2018-02-17T13:26:57.946Z,1.56
2018-02-17T13:29:24.759Z,1.44
2018-02-17T13:31:52.058Z,1.46
2018-02-17T13:34:19.414Z,1.42
2018-02-17T13:36:46.082Z,1.34
2018-02-17T13:39:12.627Z,1.23
2018-02-17T13:41:39.936Z,1.27
2018-02-17T13:44:06.534Z,1.21
2018-02-17T13:46:33.866Z,1.23
2018-02-17T13:49:00.470Z,1.25
2018-02-17T13:51:27.028Z,1.33
2018-02-17T13:53:53.603Z,1.29
2018-02-17T13:56:20.226Z,1.27
2018-02-17T13:58:47.555Z,1.37
2018-02-17T14:01:14.123Z,1.43
2018-02-17T14:03:40.705Z,1.30
2018-02-17T14:06:07.317Z,1.29
2018-02-17T14:08:34.043Z,1.31
2018-02-17T14:11:00.636Z,1.30
2018-02-17T14:13:27.209Z,1.34
2018-02-17T14:15:53.786Z,1.46
2018-02-17T14:18:20.360Z,1.44
2018-02-17T14:20:47.723Z,1.47
2018-02-17T14:23:15.007Z,1.37
2018-02-17T14:25:41.587Z,1.22
2018-02-17T14:28:08.150Z,1.32
2018-02-17T14:30:34.747Z,1.18
2018-02-17T14:33:01.331Z,1.17
2018-02-17T14:35:28.685Z,1.21
2018-02-17T14:37:56.003Z,1.06
2018-02-17T14:40:22.607Z,1.08
2018-02-17T14:42:49.232Z,1.07
2018-02-17T14:45:16.639Z,1.07
2018-02-17T14:47:43.230Z,1.00
2018-02-17T14:50:09.850Z,1.11
2018-02-17T14:52:36.480Z,1.12
2018-02-17T14:55:03.863Z,1.19
2018-02-17T14:57:30.467Z,1.21
2018-02-17T14:59:57.054Z,1.22
2018-02-17T15:02:23.671Z,1.20
2018-02-17T15:04:50.226Z,1.25
2018-02-17T15:07:16.827Z,1.20
2018-02-17T15:09:43.427Z,1.13
2018-02-17T15:12:10.883Z,1.11
2018-02-17T15:14:38.278Z,1.07
2018-02-17T15:17:05.103Z,0.97
2018-02-17T15:19:32.458Z,0.98
2018-02-17T15:21:59.710Z,0.95
2018-02-17T15:24:27.017Z,0.90
2018-02-17T15:26:53.620Z,0.91
2018-02-17T15:29:20.207Z,0.91
2018-02-17T15:31:46.763Z,0.79
2018-02-17T15:34:14.289Z,0.83
2018-02-17T15:36:40.961Z,0.73
2018-02-17T15:39:07.914Z,0.81
2018-02-17T15:41:34.614Z,0.82
2018-02-17T15:44:01.212Z,0.74
2018-02-17T15:46:27.821Z,0.83
2018-02-17T15:48:55.135Z,0.75
2018-02-17T15:51:21.718Z,0.83
2018-02-17T15:53:49.042Z,0.78
2018-02-17T15:56:15.616Z,0.82
2018-02-17T15:58:42.207Z,0.73
2018-02-17T16:01:09.588Z,0.83
2018-02-17T16:03:37.194Z,0.80
2018-02-17T16:06:04.545Z,0.83
2018-02-17T16:08:31.114Z,0.90
2018-02-17T16:10:57.689Z,0.75
2018-02-17T16:13:24.258Z,0.65
2018-02-17T16:15:50.882Z,0.77
2018-02-17T16:18:17.614Z,0.83
2018-02-17T16:20:44.235Z,0.69
2018-02-17T16:23:11.586Z,0.73
2018-02-17T16:25:38.929Z,0.73
2018-02-17T16:28:05.490Z,0.66
2018-02-17T16:30:32.068Z,0.62
2018-02-17T16:32:58.654Z,0.71
2018-02-17T16:35:25.268Z,0.65
2018-02-17T16:37:51.986Z,0.66
2018-02-17T16:40:18.591Z,0.70
2018-02-17T16:42:45.170Z,0.78
2018-02-17T16:45:12.086Z,0.65
2018-02-17T16:47:38.664Z,0.69
2018-02-17T16:50:06.087Z,0.67
2018-02-17T16:52:33.039Z,0.73
2018-02-17T16:55:00.386Z,0.57
2018-02-17T16:57:26.988Z,0.75
2018-02-17T16:59:53.590Z,0.67
2018-02-17T17:02:20.202Z,0.66
2018-02-17T17:04:46.769Z,0.54
2018-02-17T17:07:14.208Z,0.70
2018-02-17T17:09:40.821Z,0.70
2018-02-17T17:12:07.454Z,0.48
2018-02-17T17:14:34.043Z,0.58
2018-02-17T17:17:00.667Z,0.64
2018-02-17T17:19:27.246Z,0.53
2018-02-17T17:21:53.847Z,0.49
2018-02-17T17:24:21.165Z,0.49
2018-02-17T17:26:47.739Z,0.62
2018-02-17T17:29:15.093Z,0.67
2018-02-17T17:31:42.407Z,0.61
2018-02-17T17:34:09.040Z,0.63
2018-02-17T17:36:35.729Z,0.50
2018-02-17T17:39:02.380Z,0.57
2018-02-17T17:41:29.044Z,0.70
2018-02-17T17:43:55.725Z,0.52
2018-02-17T17:46:23.287Z,0.45
2018-02-17T17:48:49.946Z,0.49
2018-02-17T17:51:16.549Z,0.44
2018-02-17T17:53:43.139Z,0.41
2018-02-17T17:56:09.708Z,0.34
2018-02-17T17:58:36.652Z,0.31
2018-02-17T18:01:03.249Z,0.37
2018-02-17T18:03:29.840Z,0.38
2018-02-17T18:05:56.456Z,0.36
2018-02-17T18:08:23.059Z,0.30
2018-02-17T18:10:49.639Z,0.28
2018-02-17T18:13:16.254Z,0.27
2018-02-17T18:15:42.868Z,0.29
2018-02-17T18:18:09.824Z,0.29
2018-02-17T18:20:36.408Z,0.41
2018-02-17T18:23:02.976Z,0.42
2018-02-17T18:25:29.638Z,0.46
2018-02-17T18:27:56.373Z,0.35
2018-02-17T18:30:22.990Z,0.36
2018-02-17T18:32:49.735Z,0.33
2018-02-17T18:35:16.306Z,0.29
2018-02-17T18:37:42.886Z,0.23
2018-02-17T18:40:10.186Z,0.18
2018-02-17T18:42:36.771Z,0.28
2018-02-17T18:45:03.356Z,0.30
2018-02-17T18:47:29.997Z,0.29
2018-02-17T18:49:56.590Z,0.29
2018-02-17T18:52:23.919Z,0.30
2018-02-17T18:54:50.514Z,0.27
2018-02-17T18:57:17.071Z,0.28
2018-02-17T18:59:43.695Z,0.14
2018-02-17T19:02:10.274Z,0.20
2018-02-17T19:04:36.854Z,0.13
2018-02-17T19:07:03.543Z,0.20
2018-02-17T19:09:30.171Z,0.16
2018-02-17T19:11:56.843Z,0.21
2018-02-17T19:14:23.419Z,0.29
2018-02-17T19:16:49.992Z,0.27
2018-02-17T19:19:16.570Z,0.17
2018-02-17T19:21:43.158Z,0.19
2018-02-17T19:24:09.723Z,0.27
2018-02-17T19:26:36.324Z,0.20
2018-02-17T19:29:02.918Z,0.23
2018-02-17T19:31:29.593Z,0.13
2018-02-17T19:33:56.487Z,0.23
2018-02-17T19:36:23.098Z,0.18
2018-02-17T19:38:49.779Z,0.18
2018-02-17T19:41:16.390Z,0.08
2018-02-17T19:43:42.998Z,0.03
2018-02-17T19:46:09.590Z,0.11
2018-02-17T19:48:36.200Z,0.12
2018-02-17T19:51:02.794Z,0.08
2018-02-17T19:53:29.456Z,0.09
2018-02-17T19:55:56.116Z,0.10
2018-02-17T19:58:23.461Z,0.10
2018-02-17T20:00:50.103Z,0.06
2018-02-17T20:03:17.441Z,0.09
2018-02-17T20:05:44.007Z,0.03
2018-02-17T20:08:10.653Z,0.05
2018-02-17T20:10:37.273Z,0.03
2018-02-17T20:13:04.585Z,-0.05
2018-02-17T20:15:31.160Z,-0.08
2018-02-17T20:17:58.532Z,-0.12
2018-02-17T20:20:25.131Z,-0.11
2018-02-17T20:22:51.734Z,-0.10
2018-02-17T20:25:18.351Z,-0.07
2018-02-17T20:27:45.023Z,-0.02
2018-02-17T20:30:11.731Z,0.02
2018-02-17T20:32:38.322Z,-0.11
2018-02-17T20:35:04.868Z,-0.07
2018-02-17T20:37:32.207Z,-0.11
2018-02-17T20:39:58.853Z,-0.05
2018-02-17T20:42:26.226Z,-0.14
2018-02-17T20:44:53.564Z,-0.12
2018-02-17T20:47:20.164Z,-0.11
2018-02-17T20:49:46.787Z,-0.15
2018-02-17T20:52:13.422Z,-0.12
2018-02-17T20:54:40.033Z,-0.12
2018-02-17T20:57:06.644Z,-0.08
2018-02-17T20:59:33.227Z,-0.15
2018-02-17T21:01:59.897Z,-0.17
2018-02-17T21:04:26.499Z,-0.10
2018-02-17T21:06:53.083Z,-0.07
2018-02-17T21:09:19.700Z,-0.24
2018-02-17T21:11:46.414Z,-0.23
2018-02-17T21:14:13.034Z,-0.27
2018-02-17T21:16:39.626Z,-0.50
2018-02-17T21:19:06.234Z,-0.57
2018-02-17T21:21:32.861Z,-0.54
2018-02-17T21:23:59.481Z,-0.54
2018-02-17T21:26:26.178Z,-0.60
2018-02-17T21:28:52.791Z,-0.53
2018-02-17T21:31:19.466Z,-0.52
2018-02-17T21:33:46.046Z,-0.44
2018-02-17T21:36:12.701Z,-0.56
2018-02-17T21:38:39.306Z,-0.50
2018-02-17T21:41:05.891Z,-0.48
2018-02-17T21:43:32.524Z,-0.53
2018-02-17T21:45:59.103Z,-0.65
2018-02-17T21:48:25.795Z,-0.55
2018-02-17T21:50:52.423Z,-0.45
2018-02-17T21:53:19.012Z,-0.44
2018-02-17T21:55:46.366Z,-0.50
2018-02-17T21:58:13.683Z,-0.53
2018-02-17T22:00:40.320Z,-0.62
2018-02-17T22:03:06.938Z,-0.62
2018-02-17T22:05:34.319Z,-0.64
2018-02-17T22:08:00.936Z,-0.58
2018-02-17T22:10:27.499Z,-0.58
2018-02-17T22:12:54.124Z,-0.59
2018-02-17T22:15:20.857Z,-0.65
2018-02-17T22:17:47.468Z,-0.64
2018-02-17T22:20:14.032Z,-0.49
2018-02-17T22:22:40.613Z,-0.53
2018-02-17T22:25:07.956Z,-0.60
2018-02-17T22:27:34.547Z,-0.58
2018-02-17T22:30:01.194Z,-0.59
2018-02-17T22:32:27.783Z,-0.53
2018-02-17T22:34:55.094Z,-0.56
2018-02-17T22:37:21.655Z,-0.52
2018-02-17T22:39:48.206Z,-0.52
2018-02-17T22:42:14.808Z,-0.57
2018-02-17T22:44:41.426Z,-0.63
2018-02-17T22:47:07.999Z,-0.65
2018-02-17T22:49:34.593Z,-0.64
2018-02-17T22:52:01.242Z,-0.66
2018-02-17T22:54:27.911Z,-0.54
2018-02-17T22:56:54.477Z,-0.60
2018-02-17T22:59:21.016Z,-0.62
2018-02-17T23:01:47.621Z,-0.66
2018-02-17T23:04:14.978Z,-0.63
2018-02-17T23:06:42.375Z,-0.64
2018-02-17T23:09:08.998Z,-0.65
2018-02-17T23:11:35.644Z,-0.66
2018-02-17T23:14:02.251Z,-0.66
2018-02-17T23:16:29.547Z,-0.62
2018-02-17T23:18:56.102Z,-0.60
2018-02-17T23:21:22.712Z,-0.53
2018-02-17T23:23:49.282Z,-0.52
2018-02-17T23:26:15.885Z,-0.54
2018-02-17T23:28:42.471Z,-0.37
2018-02-17T23:31:09.023Z,-0.38
2018-02-17T23:33:36.334Z,-0.41
2018-02-17T23:36:02.902Z,-0.46
2018-02-17T23:38:30.317Z,-0.46
2018-02-17T23:40:56.861Z,-0.46
2018-02-17T23:43:23.437Z,-0.51
2018-02-17T23:45:50.732Z,-0.47
2018-02-17T23:48:17.346Z,-0.54
2018-02-17T23:50:43.923Z,-0.56
2018-02-17T23:53:10.529Z,-0.53
2018-02-17T23:55:37.146Z,-0.60
2018-02-17T23:58:03.787Z,-0.56
